Data for 03/19/2007

Time Sea-Level Adjusted Pressure Absolute Pressure Temperature Relative Humidity Dew Point   
(mb) (inHg) (mb) (inHg) (C) (F) (%) (C) (F)
00:05 1017 30.03 846 24.98 4.9 40.9 73 0.5 32.9
00:10 1017 30.03 846 24.98 4.9 40.9 73 0.6 33
00:15 1017 30.03 846 24.98 4.8 40.7 73 0.5 32.9
00:20 1017 30.03 846 24.98 4.8 40.6 74 0.5 33
00:25 1017 30.03 846 24.98 4.7 40.5 74 0.5 33
00:30 1017 30.03 846 24.98 4.7 40.5 74 0.5 32.9
00:35 1017 30.03 846 24.98 4.7 40.4 74 0.5 32.9
00:40 1017 30.03 846 24.98 4.6 40.4 75 0.6 33
00:45 1017 30.03 846 24.98 4.6 40.3 75 0.5 32.9
00:50 1017 30.03 846 24.98 4.5 40.2 75 0.5 32.9
00:55 1017 30.03 846 24.98 4.6 40.2 75 0.5 32.9
01:00 1017 30.03 846 24.98 4.6 40.2 75 0.5 32.9
01:05 1017 30.03 846 24.98 4.5 40.1 75 0.5 32.9
01:10 1017 30.03 846 24.98 4.4 39.9 76 0.5 33
01:15 1017 30.03 846 24.98 4.2 39.5 77 0.5 32.9
01:20 1017 30.03 846 24.98 4.1 39.3 77 0.4 32.7
01:25 1017 30.03 846 24.98 4 39.2 78 0.5 32.9
01:30 1017 30.03 846 24.98 3.8 38.9 78 0.4 32.7
01:35 1017 30.03 846 24.98 3.8 38.9 79 0.4 32.8
01:40 1017 30.03 846 24.98 3.8 38.8 79 0.5 32.9
01:45 1017 30.03 846 24.98 3.7 38.7 79 0.5 32.8
01:50 1017 30.03 846 24.98 3.7 38.7 79 0.4 32.8
01:55 1017 30.03 846 24.98 3.6 38.4 80 0.4 32.7
02:00 1017 30.03 846 24.98 3.5 38.2 80 0.4 32.7
02:05 1017 30.03 846 24.98 3.4 38.1 81 0.4 32.7
02:10 1016 30 846 24.98 3.4 38.1 81 0.4 32.7
02:15 1017 30.03 846 24.98 3.4 38 81 0.4 32.7
02:20 1017 30.03 846 24.98 3.3 38 81 0.4 32.7
02:25 1017 30.03 846 24.98 3.3 38 80 0.3 32.5
02:30 1017 30.03 846 24.98 3.3 37.9 80 0.2 32.4
02:35 1017 30.03 846 24.98 3.3 37.9 80 0.2 32.4
02:40 1017 30.03 846 24.98 3.1 37.7 81 0.2 32.3
02:45 1017 30.03 846 24.98 3 37.4 81 0.2 32.3
02:50 1017 30.03 846 24.98 2.9 37.3 82 0.1 32.2
02:55 1017 30.03 846 24.98 2.9 37.2 81 0 32
03:00 1017 30.03 846 24.98 2.9 37.2 81 -0 32
03:05 1017 30.03 846 24.98 2.9 37.2 81 -0.1 31.8
03:10 1017 30.03 846 24.98 2.8 37.1 81 -0.1 31.9
03:15 1017 30.03 846 24.98 2.6 36.7 82 -0.2 31.7
03:20 1017 30.03 846 24.98 2.4 36.3 83 -0.3 31.5
03:25 1017 30.03 846 24.98 2.2 36 84 -0.3 31.5
03:30 1016 30 846 24.98 2.3 36.1 84 -0.2 31.7
03:35 1016 30 846 24.98 2.4 36.4 83 -0.2 31.7
03:40 1016 30 846 24.98 2.6 36.6 83 -0.1 31.8
03:45 1016 30 846 24.98 2.6 36.7 82 -0.1 31.8
03:50 1016 30 846 24.98 2.5 36.6 82 -0.2 31.7
03:55 1016 30 846 24.98 2.5 36.5 82 -0.2 31.7
04:00 1016 30 846 24.98 2.5 36.4 83 -0.2 31.7
04:05 1016 30 846 24.98 2.4 36.4 83 -0.2 31.6
04:10 1016 30 845 24.95 2.4 36.4 83 -0.2 31.7
04:15 1016 30 845 24.95 2.3 36.2 84 -0.2 31.7
04:20 1016 30 846 24.98 2.2 36 84 -0.2 31.6
04:25 1016 30 845 24.95 2.2 35.9 84 -0.2 31.6
04:30 1016 30 846 24.98 2.2 35.9 84 -0.3 31.4
04:35 1016 30 845 24.95 2.1 35.8 84 -0.4 31.4
04:40 1016 30 846 24.98 2.1 35.7 84 -0.3 31.4
04:45 1016 30 846 24.98 2 35.5 85 -0.3 31.5
04:50 1016 30 846 24.98 1.9 35.4 86 -0.2 31.6
04:55 1016 30 846 24.98 1.8 35.3 87 -0.1 31.8
05:00 1016 30 846 24.98 1.8 35.3 87 -0.1 31.9
05:05 1016 30 846 24.98 1.8 35.3 87 -0 31.9
05:10 1016 30 846 24.98 1.9 35.5 87 -0 32
05:15 1016 30 846 24.98 1.9 35.5 87 0 32.1
05:20 1016 30 846 24.98 1.9 35.5 87 0 32.1
05:25 1016 30 846 24.98 1.9 35.4 87 -0 32
05:30 1016 30 846 24.98 1.9 35.4 87 -0 32
05:35 1016 30 846 24.98 1.9 35.4 87 -0 32
05:40 1016 30 846 24.98 1.8 35.2 88 -0 31.9
05:45 1016 30 845 24.95 1.8 35.2 88 -0 31.9
05:50 1016 30 845 24.95 1.8 35.2 87 -0.1 31.9
05:55 1016 30 845 24.95 1.8 35.2 88 -0 31.9
06:00 1016 30 845 24.95 1.7 35.1 88 -0.1 31.9
06:05 1016 30 845 24.95 1.6 35 88 -0.2 31.7
06:10 1016 30 845 24.95 1.5 34.8 88 -0.2 31.7
06:15 1016 30 845 24.95 1.5 34.7 88 -0.2 31.6
06:20 1016 30 845 24.95 1.5 34.7 88 -0.3 31.5
06:25 1016 30 845 24.95 1.5 34.6 88 -0.3 31.5
06:30 1016 30 845 24.95 1.4 34.5 88 -0.3 31.5
06:35 1016 30 845 24.95 1.4 34.5 88 -0.4 31.3
06:40 1016 30 845 24.95 1.2 34.2 89 -0.5 31.2
06:45 1016 30 845 24.95 1.2 34.1 88 -0.6 31
06:50 1016 30 845 24.95 1.1 34 88 -0.6 31
06:55 1016 30 845 24.95 1.1 33.9 89 -0.6 30.9
07:00 1016 30 845 24.95 1 33.9 89 -0.6 30.9
07:05 1016 30 845 24.95 1 33.8 89 -0.7 30.8
07:10 1016 30 845 24.95 1 33.9 88 -0.7 30.8
07:15 1016 30 845 24.95 1 33.8 88 -0.8 30.6
07:20 1016 30 845 24.95 1 33.8 88 -0.8 30.6
07:25 1016 30 845 24.95 1 33.9 87 -0.8 30.5
07:30 1016 30 845 24.95 1 33.9 88 -0.8 30.6
07:35 1016 30 845 24.95 1 33.8 88 -0.8 30.5
07:40 1016 30 845 24.95 0.9 33.7 88 -0.8 30.5
07:45 1016 30 845 24.95 1 33.8 88 -0.8 30.5
07:50 1016 30 845 24.95 1.1 33.9 87 -0.9 30.4
07:55 1016 30 845 24.95 1.2 34.1 86 -0.9 30.4
08:00 1016 30 845 24.95 1.3 34.4 86 -0.8 30.5
08:05 1016 30 845 24.95 1.4 34.5 85 -0.8 30.5
08:10 1016 30 845 24.95 1.6 34.9 85 -0.7 30.7
08:15 1016 30 845 24.95 1.6 34.9 84 -0.8 30.6
08:20 1016 30 845 24.95 1.9 35.4 83 -0.6 30.9
08:25 1016 30 845 24.95 2 35.6 83 -0.6 30.9
08:30 1016 30 845 24.95 2.2 35.9 82 -0.5 31
08:35 1016 30 845 24.95 2.2 36 82 -0.6 30.9
08:40 1016 30 845 24.95 2.5 36.5 80 -0.6 31
08:45 1016 30 845 24.95 2.7 36.9 80 -0.5 31.2
08:50 1016 30 845 24.95 3 37.3 79 -0.4 31.3
08:55 1016 30 845 24.95 3.1 37.6 78 -0.4 31.4
09:00 1016 30 845 24.95 3.1 37.7 78 -0.4 31.3
09:05 1016 30 845 24.95 3.4 38.2 76 -0.3 31.5
09:10 1016 30 845 24.95 3.9 39 75 -0.2 31.7
09:15 1016 30 845 24.95 3.9 39 76 0 32
09:20 1016 30 845 24.95 4.3 39.8 73 -0.1 31.9
09:25 1016 30 845 24.95 4.2 39.5 74 -0.1 31.9
09:30 1016 30 845 24.95 4.7 40.4 70 -0.2 31.6
09:35 1016 30 845 24.95 4.9 40.9 69 -0.2 31.6
09:40 1016 30 845 24.95 5.2 41.4 68 -0.1 31.8
09:45 1016 30 845 24.95 5.4 41.8 68 -0.1 31.8
09:50 1016 30 845 24.95 5.7 42.3 66 -0.2 31.6
09:55 1016 30 845 24.95 6.1 43 63 -0.3 31.5
10:00 1016 30 845 24.95 6.2 43.1 62 -0.4 31.2
10:05 1016 30 845 24.95 6.8 44.2 60 -0.4 31.4
10:10 1016 30 845 24.95 7.6 45.6 56 -0.6 31
10:15 1016 30 845 24.95 7.8 46 55 -0.7 30.7
10:20 1016 30 845 24.95 8.2 46.8 52 -0.9 30.3
10:25 1016 30 845 24.95 8.3 46.9 52 -1.1 30.1
10:30 1016 30 845 24.95 8.8 47.8 49 -1.4 29.6
10:35 1015 29.97 845 24.95 9.2 48.5 48 -1.1 30
10:40 1015 29.97 845 24.95 9.5 49 46 -1.5 29.4
10:45 1015 29.97 845 24.95 10.1 50.1 46 -0.9 30.3
10:50 1015 29.97 845 24.95 9.8 49.6 45 -1.4 29.5
10:55 1015 29.97 845 24.95 9.8 49.7 45 -1.6 29.1
11:00 1015 29.97 844 24.92 10.1 50.2 44 -1.4 29.5
11:05 1015 29.97 844 24.92 10.6 51.2 43 -1.5 29.2
11:10 1015 29.97 844 24.92 11 51.8 42 -1.3 29.7
11:15 1015 29.97 844 24.92 11.6 52.9 39 -1.8 28.8
11:20 1015 29.97 844 24.92 11.4 52.5 42 -1.1 30
11:25 1015 29.97 844 24.92 11.7 53.1 41 -1.1 30
11:30 1015 29.97 844 24.92 11.9 53.5 39 -1.4 29.5
11:35 1015 29.97 844 24.92 12 53.7 40 -1 30.2
11:40 1015 29.97 844 24.92 12.3 54.2 38 -1.4 29.5
11:45 1015 29.97 844 24.92 11.6 52.8 43 -0.6 31
11:50 1015 29.97 844 24.92 11.6 52.9 43 -0.6 31
11:55 1015 29.97 844 24.92 12.3 54.2 44 0.4 32.7
12:00 1015 29.97 844 24.92 11.8 53.3 42 -0.5 31.1
12:05 1015 29.97 844 24.92 11.9 53.4 44 0.1 32.1
12:10 1015 29.97 844 24.92 12.5 54.4 40 -0.7 30.7
12:15 1015 29.97 844 24.92 13.5 56.2 37 -0.7 30.7
12:20 1014 29.94 844 24.92 13.6 56.4 39 -0.2 31.6
12:25 1014 29.94 844 24.92 12.5 54.4 42 0 32
12:30 1014 29.94 844 24.92 12.7 54.8 39 -0.8 30.6
12:35 1014 29.94 844 24.92 13.4 56.1 37 -1 30.2
12:40 1014 29.94 843 24.89 14.3 57.7 34 -1.3 29.7
12:45 1014 29.94 843 24.89 14.6 58.3 33 -1.4 29.5
12:50 1014 29.94 843 24.89 14.7 58.5 34 -0.9 30.5
12:55 1014 29.94 843 24.89 14.7 58.4 34 -0.9 30.4
13:00 1014 29.94 843 24.89 14.6 58.3 35 -0.5 31
13:05 1014 29.94 843 24.89 14.8 58.6 34 -1 30.3
13:10 1014 29.94 843 24.89 14.3 57.8 34 -1.1 30
13:15 1014 29.94 843 24.89 13.6 56.5 38 -0.3 31.5
13:20 1014 29.94 843 24.89 13.1 55.7 37 -1 30.2
13:25 1014 29.94 843 24.89 13.1 55.6 36 -1.6 29.2
13:30 1014 29.94 843 24.89 13.3 56 36 -1.4 29.5
13:35 1014 29.94 843 24.89 13.4 56.2 34 -2.1 28.3
13:40 1014 29.94 843 24.89 13.7 56.7 34 -1.6 29.1
13:45 1014 29.94 843 24.89 13.6 56.4 34 -2 28.4
13:50 1014 29.94 843 24.89 14.3 57.7 32 -1.9 28.5
13:55 1013 29.91 843 24.89 15.8 60.5 30 -1.5 29.4
14:00 1013 29.91 843 24.89 15.6 60 31 -1.3 29.7
14:05 1013 29.91 842 24.86 15.2 59.3 32 -1.3 29.6
14:10 1013 29.91 842 24.86 15.5 59.9 32 -1.2 29.9
14:15 1013 29.91 842 24.86 14.8 58.6 32 -1.8 28.8
14:20 1013 29.91 842 24.86 15.7 60.3 30 -1.5 29.2
14:25 1013 29.91 842 24.86 16.3 61.4 30 -1.3 29.7
14:30 1013 29.91 842 24.86 16.2 61.1 30 -1.1 30
14:35 1013 29.91 842 24.86 16.2 61.2 30 -1.5 29.3
14:40 1013 29.91 842 24.86 16.2 61.1 30 -1.4 29.5
14:45 1013 29.91 842 24.86 16.6 61.9 29 -1.5 29.3
14:50 1013 29.91 842 24.86 16.9 62.3 29 -1.2 29.9
14:55 1013 29.91 842 24.86 17 62.6 30 -0.8 30.6
15:00 1013 29.91 842 24.86 16.9 62.5 29 -1.1 30
15:05 1012 29.88 842 24.86 16.6 62 29 -1.3 29.7
15:10 1012 29.88 842 24.86 17 62.6 29 -0.9 30.4
15:15 1012 29.88 842 24.86 16.1 61 30 -1.2 29.9
15:20 1012 29.88 841 24.83 16.3 61.3 30 -1.4 29.5
15:25 1012 29.88 841 24.83 16.7 62 28 -1.6 29.1
15:30 1012 29.88 841 24.83 17.5 63.5 27 -1.5 29.3
15:35 1012 29.88 841 24.83 17.7 63.9 27 -1.6 29.2
15:40 1012 29.88 841 24.83 18.1 64.6 25 -1.9 28.6
15:45 1012 29.88 841 24.83 18.3 64.9 26 -1.6 29.1
15:50 1012 29.88 841 24.83 18.4 65.1 25 -1.9 28.7
15:55 1012 29.88 841 24.83 18.7 65.6 25 -1.7 29
16:00 1012 29.88 841 24.83 18.8 65.9 25 -1.4 29.4
16:05 1012 29.88 841 24.83 18.6 65.5 24 -2.3 27.8
16:10 1012 29.88 841 24.83 18.6 65.5 25 -1.7 28.9
16:15 1012 29.88 841 24.83 18.9 65.9 24 -2.3 27.9
16:20 1012 29.88 841 24.83 19.1 66.4 23 -2.1 28.2
16:25 1012 29.88 841 24.83 18.9 66.1 23 -2.3 27.9
16:30 1012 29.88 841 24.83 19.2 66.5 24 -2 28.4
16:35 1012 29.88 841 24.83 18.3 65 25 -2 28.4
16:40 1012 29.88 841 24.83 18.6 65.4 23 -2.9 26.8
16:45 1012 29.88 841 24.83 18.3 64.9 23 -3 26.5
16:50 1012 29.88 841 24.83 18.6 65.4 22 -3.5 25.7
16:55 1012 29.88 841 24.83 18.7 65.7 22 -3.4 26
17:00 1011 29.85 841 24.83 19 66.2 21 -3.4 25.9
17:05 1011 29.85 841 24.83 18.9 66 21 -3.8 25.1
17:10 1011 29.85 841 24.83 18.9 66.1 19 -4.9 23.2
17:15 1011 29.85 841 24.83 19.5 67.1 19 -4.3 24.3
17:20 1011 29.85 840 24.81 19 66.2 20 -4.6 23.6
17:25 1011 29.85 840 24.81 18.5 65.4 20 -4.8 23.3
17:30 1011 29.85 840 24.81 18.9 65.9 20 -4.5 23.9
17:35 1011 29.85 840 24.81 18.9 65.9 21 -3.8 25.2
17:40 1011 29.85 840 24.81 18.7 65.6 18 -6.1 21.1
17:45 1011 29.85 840 24.81 18.1 64.6 19 -5.9 21.3
17:50 1011 29.85 840 24.81 17.9 64.3 20 -5.3 22.4
17:55 1011 29.85 840 24.81 18.1 64.6 22 -3.7 25.4
18:00 1011 29.85 840 24.81 17.7 63.9 19 -6.4 20.4
18:05 1011 29.85 840 24.81 17.3 63.2 18 -7 19.5
18:10 1011 29.85 840 24.81 17.4 63.2 19 -6.3 20.6
18:15 1011 29.85 840 24.81 17.9 64.3 18 -6.4 20.4
18:20 1011 29.85 840 24.81 17.9 64.1 18 -7 19.4
18:25 1011 29.85 840 24.81 17.8 64.1 20 -5.5 22.1
18:30 1011 29.85 840 24.81 17.9 64.2 19 -6.2 20.8
18:35 1011 29.85 840 24.81 17.6 63.7 19 -6.1 21.1
18:40 1011 29.85 840 24.81 17.4 63.3 20 -5.7 21.7
18:45 1011 29.85 840 24.81 17 62.7 21 -5.5 22
18:50 1011 29.85 840 24.81 16.9 62.4 21 -5.3 22.5
18:55 1011 29.85 840 24.81 16.5 61.7 22 -5.1 22.8
19:00 1011 29.85 840 24.81 16.1 61 23 -5.1 22.8
19:05 1011 29.85 841 24.83 15.8 60.4 23 -5.2 22.7
19:10 1011 29.85 841 24.83 15.4 59.8 23 -5.7 21.8
19:15 1011 29.85 841 24.83 15.3 59.5 24 -5.3 22.5
19:20 1011 29.85 841 24.83 15.2 59.3 24 -5.1 22.7
19:25 1012 29.88 841 24.83 14.9 58.8 24 -5.3 22.5
19:30 1012 29.88 841 24.83 14.7 58.4 24 -5.6 22
19:35 1012 29.88 841 24.83 14.3 57.7 24 -6 21.3
19:40 1012 29.88 841 24.83 13.7 56.7 25 -5.7 21.7
19:45 1012 29.88 841 24.83 13.5 56.2 27 -5.1 22.9
19:50 1011 29.85 841 24.83 13.2 55.7 27 -5.3 22.5
19:55 1011 29.85 841 24.83 12.9 55.3 27 -5.5 22.1
20:00 1011 29.85 841 24.83 13.1 55.5 27 -5.3 22.4
20:05 1012 29.88 841 24.83 12.9 55.2 27 -5.4 22.2
20:10 1011 29.85 841 24.83 12.7 54.9 27 -5.6 21.9
20:15 1011 29.85 841 24.83 12.6 54.6 29 -5.2 22.7
20:20 1011 29.85 841 24.83 12.7 54.8 29 -5 22.9
20:25 1011 29.85 841 24.83 12.7 54.9 29 -4.8 23.3
20:30 1011 29.85 841 24.83 12.5 54.5 29 -4.9 23.3
20:35 1011 29.85 840 24.81 12.6 54.6 30 -4.7 23.5
20:40 1011 29.85 840 24.81 13.1 55.5 29 -4.3 24.3
20:45 1011 29.85 840 24.81 13.1 55.5 29 -4.5 23.9
20:50 1011 29.85 840 24.81 12.3 54.2 31 -4.3 24.3
20:55 1011 29.85 840 24.81 11.6 52.9 32 -4.4 24.1
21:00 1011 29.85 840 24.81 11.4 52.5 33 -4.3 24.3
21:05 1011 29.85 840 24.81 11.3 52.3 32 -4.6 23.7
21:10 1011 29.85 840 24.81 11.1 52.1 33 -4.6 23.7
21:15 1011 29.85 840 24.81 11.2 52.1 32 -4.7 23.5
21:20 1011 29.85 840 24.81 11.1 52 33 -4.6 23.7
21:25 1011 29.85 840 24.81 11 51.8 33 -4.6 23.7
21:30 1011 29.85 840 24.81 11 51.9 33 -4.5 23.9
21:35 1011 29.85 840 24.81 11.4 52.6 32 -4.6 23.8
21:40 1011 29.85 840 24.81 11.5 52.8 32 -4.5 23.9
21:45 1011 29.85 840 24.81 11.7 53.1 32 -4.3 24.3
21:50 1011 29.85 840 24.81 11.7 53 32 -4.2 24.4
21:55 1011 29.85 840 24.81 11.5 52.7 33 -4.1 24.7
22:00 1011 29.85 840 24.81 11.4 52.5 33 -4.2 24.5
22:05 1011 29.85 840 24.81 11.5 52.7 34 -3.9 25
22:10 1011 29.85 840 24.81 11.2 52.1 34 -3.9 24.9
22:15 1011 29.85 840 24.81 11.2 52.2 35 -3.8 25.1
22:20 1011 29.85 840 24.81 10.7 51.2 37 -3.5 25.8
22:25 1011 29.85 840 24.81 10.4 50.8 37 -3.5 25.6
22:30 1010 29.83 840 24.81 10.6 51.2 36 -3.7 25.3
22:35 1010 29.83 840 24.81 10.9 51.6 36 -3.7 25.3
22:40 1010 29.83 839 24.78 11 51.7 36 -3.6 25.5
22:45 1010 29.83 839 24.78 10.8 51.4 37 -3.3 26.1
22:50 1010 29.83 839 24.78 10.8 51.5 36 -3.4 25.8
22:55 1010 29.83 839 24.78 10.8 51.4 37 -3.3 26
23:00 1010 29.83 839 24.78 10.3 50.5 39 -3 26.7
23:05 1010 29.83 839 24.78 9.8 49.7 39 -3.4 25.8
23:10 1010 29.83 839 24.78 10 49.9 38 -3.8 25.2
23:15 1010 29.83 839 24.78 10.4 50.7 36 -3.9 25.1
23:20 1010 29.83 839 24.78 10.8 51.4 35 -4 24.8
23:25 1010 29.83 839 24.78 11.3 52.3 34 -4 24.8
23:30 1010 29.83 839 24.78 11.4 52.5 34 -4 24.8
23:35 1010 29.83 839 24.78 11.4 52.6 33 -4.2 24.4
23:40 1010 29.83 839 24.78 11.8 53.2 32 -4.1 24.6
23:45 1010 29.83 839 24.78 12.6 54.6 30 -4.6 23.8
23:50 1010 29.83 839 24.78 13 55.3 30 -4 24.8
23:55 1010 29.83 839 24.78 12.9 55.2 30 -4.1 24.5
24:00 1010 29.83 839 24.78 12.6 54.6 30 -4.4 24